createdAt,value
2023-07-15T00:01:38.582Z,96547.66
2023-07-15T00:04:12.717Z,96551.59
2023-07-15T00:06:39.793Z,96555.41
2023-07-15T00:09:06.314Z,96549.50
2023-07-15T00:11:44.111Z,96558.00
2023-07-15T00:14:22.984Z,96559.53
2023-07-15T00:16:51.577Z,96553.75
2023-07-15T00:19:23.362Z,96562.63
2023-07-15T00:21:51.002Z,96555.81
2023-07-15T00:24:18.227Z,96552.97
2023-07-15T00:26:48.626Z,96546.16
2023-07-15T00:29:17.351Z,96552.16
2023-07-15T00:31:45.173Z,96549.63
2023-07-15T00:34:11.914Z,96553.63
2023-07-15T00:36:38.476Z,96559.03
2023-07-15T00:39:06.150Z,96551.00
2023-07-15T00:41:36.910Z,96550.56
2023-07-15T00:44:06.314Z,96558.53
2023-07-15T00:46:44.986Z,96556.09
2023-07-15T00:49:27.746Z,96548.91
2023-07-15T00:52:02.209Z,96556.50
2023-07-15T00:54:33.324Z,96554.09
2023-07-15T00:57:01.425Z,96555.09
2023-07-15T00:59:28.321Z,96558.75
2023-07-15T01:01:56.065Z,96560.69
2023-07-15T01:04:23.026Z,96558.09
2023-07-15T01:06:49.721Z,96562.16
2023-07-15T01:09:16.487Z,96554.66
2023-07-15T01:11:43.018Z,96548.81
2023-07-15T01:14:13.630Z,96549.38
2023-07-15T01:16:41.607Z,96557.75
2023-07-15T01:19:08.532Z,96554.34
2023-07-15T01:21:37.827Z,96549.59
2023-07-15T01:24:04.953Z,96553.03
2023-07-15T01:26:32.681Z,96554.28
2023-07-15T01:28:59.369Z,96552.25
2023-07-15T01:31:27.778Z,96553.03
2023-07-15T01:33:54.676Z,96551.41
2023-07-15T01:36:21.315Z,96552.53
2023-07-15T01:38:48.053Z,96549.00
2023-07-15T01:41:14.699Z,96550.56
2023-07-15T01:43:41.375Z,96549.66
2023-07-15T01:46:07.916Z,96545.63
2023-07-15T01:48:34.800Z,96546.50
2023-07-15T01:51:01.362Z,96548.16
2023-07-15T01:53:27.893Z,96539.16
2023-07-15T01:55:54.508Z,96550.63
2023-07-15T01:58:22.012Z,96550.63
2023-07-15T02:00:49.596Z,96555.94
2023-07-15T02:03:17.379Z,96554.25
2023-07-15T02:05:44.419Z,96547.84
2023-07-15T02:08:10.998Z,96553.25
2023-07-15T02:10:37.606Z,96549.59
2023-07-15T02:13:04.170Z,96546.06
2023-07-15T02:15:30.690Z,96545.47
2023-07-15T02:17:57.219Z,96540.75
2023-07-15T02:20:23.809Z,96548.91
2023-07-15T02:22:50.455Z,96546.19
2023-07-15T02:25:17.792Z,96546.56
2023-07-15T02:27:51.142Z,96546.03
2023-07-15T02:30:18.007Z,96549.09
2023-07-15T02:32:44.559Z,96552.78
2023-07-15T02:35:13.349Z,96543.53
2023-07-15T02:37:41.889Z,96548.16
2023-07-15T02:40:11.425Z,96551.53
2023-07-15T02:42:38.447Z,96552.38
2023-07-15T02:45:07.948Z,96533.56
2023-07-15T02:47:35.546Z,96547.75
2023-07-15T02:50:06.201Z,96550.66
2023-07-15T02:52:33.922Z,96543.19
2023-07-15T02:55:01.814Z,96542.13
2023-07-15T02:57:29.117Z,96549.16
2023-07-15T02:59:57.223Z,96550.34
2023-07-15T03:02:24.441Z,96544.09
2023-07-15T03:04:52.166Z,96548.75
2023-07-15T03:07:18.938Z,96552.03
2023-07-15T03:09:48.379Z,96550.41
2023-07-15T03:12:14.898Z,96546.13
2023-07-15T03:14:43.311Z,96547.53
2023-07-15T03:17:11.752Z,96548.78
2023-07-15T03:19:41.690Z,96551.53
2023-07-15T03:22:08.840Z,96541.13
2023-07-15T03:24:36.158Z,96553.34
2023-07-15T03:27:03.708Z,96554.38
2023-07-15T03:29:30.557Z,96541.78
2023-07-15T03:31:57.183Z,96543.25
2023-07-15T03:34:26.538Z,96559.13
2023-07-15T03:36:53.691Z,96557.59
2023-07-15T03:39:22.208Z,96550.38
2023-07-15T03:41:49.050Z,96559.31
2023-07-15T03:44:15.535Z,96560.34
2023-07-15T03:46:42.248Z,96561.78
2023-07-15T03:49:08.963Z,96555.84
2023-07-15T03:51:36.336Z,96561.75
2023-07-15T03:54:04.233Z,96547.34
2023-07-15T03:56:31.190Z,96548.38
2023-07-15T03:58:57.727Z,96547.00
2023-07-15T04:01:24.566Z,96558.31
2023-07-15T04:03:51.113Z,96558.72
2023-07-15T04:06:17.925Z,96556.59
2023-07-15T04:08:44.553Z,96548.25
2023-07-15T04:11:11.305Z,96544.69
2023-07-15T04:13:38.629Z,96548.19
2023-07-15T04:16:06.610Z,96546.97
2023-07-15T04:18:33.128Z,96546.47
2023-07-15T04:20:59.671Z,96543.84
2023-07-15T04:23:26.254Z,96544.88
2023-07-15T04:25:54.228Z,96550.91
2023-07-15T04:28:20.820Z,96550.69
2023-07-15T04:30:47.425Z,96557.66
2023-07-15T04:33:15.418Z,96559.22
2023-07-15T04:35:42.189Z,96553.63
2023-07-15T04:38:10.467Z,96545.50
2023-07-15T04:40:37.086Z,96556.47
2023-07-15T04:43:03.671Z,96542.97
2023-07-15T04:45:30.886Z,96549.66
2023-07-15T04:47:58.737Z,96553.31
2023-07-15T04:50:25.393Z,96555.63
2023-07-15T04:52:51.910Z,96558.50
2023-07-15T04:55:19.366Z,96549.03
2023-07-15T04:57:45.893Z,96548.28
2023-07-15T05:00:13.064Z,96548.75
2023-07-15T05:02:40.046Z,96544.88
2023-07-15T05:05:07.223Z,96536.25
2023-07-15T05:07:43.617Z,96542.63
2023-07-15T05:10:20.652Z,96551.16
2023-07-15T05:12:47.680Z,96547.94
2023-07-15T05:15:15.797Z,96552.47
2023-07-15T05:17:48.243Z,96554.16
2023-07-15T05:20:15.069Z,96533.13
2023-07-15T05:22:42.844Z,96554.88
2023-07-15T05:25:13.643Z,96553.09
2023-07-15T05:27:41.220Z,96550.97
2023-07-15T05:30:09.678Z,96549.66
2023-07-15T05:32:36.433Z,96555.81
2023-07-15T05:35:03.161Z,96549.88
2023-07-15T05:37:29.685Z,96546.56
2023-07-15T05:39:56.317Z,96552.09
2023-07-15T05:42:22.930Z,96549.09
2023-07-15T05:44:49.505Z,96548.41
2023-07-15T05:47:16.106Z,96562.81
2023-07-15T05:49:42.697Z,96547.97
2023-07-15T05:52:09.455Z,96556.78
2023-07-15T05:54:35.951Z,96560.47
2023-07-15T05:57:02.479Z,96555.47
2023-07-15T05:59:29.028Z,96549.94
2023-07-15T06:01:55.536Z,96552.28
2023-07-15T06:04:22.073Z,96553.25
2023-07-15T06:06:48.642Z,96550.22
2023-07-15T06:09:15.162Z,96548.03
2023-07-15T06:11:41.690Z,96542.31
2023-07-15T06:14:08.355Z,96539.56
2023-07-15T06:16:34.897Z,96555.00
2023-07-15T06:19:01.532Z,96549.00
2023-07-15T06:21:28.150Z,96552.00
2023-07-15T06:23:54.993Z,96546.25
2023-07-15T06:26:21.562Z,96555.03
2023-07-15T06:28:48.375Z,96553.75
2023-07-15T06:31:16.844Z,96537.94
2023-07-15T06:33:45.795Z,96542.91
2023-07-15T06:36:12.381Z,96539.47
2023-07-15T06:38:40.061Z,96536.22
2023-07-15T06:41:06.923Z,96549.84
2023-07-15T06:43:33.784Z,96547.84
2023-07-15T06:46:00.755Z,96544.53
2023-07-15T06:48:27.237Z,96540.28
2023-07-15T06:50:54.729Z,96542.84
2023-07-15T06:53:22.749Z,96539.38
2023-07-15T06:55:53.828Z,96532.09
2023-07-15T06:58:23.001Z,96527.47
2023-07-15T07:00:49.566Z,96529.03
2023-07-15T07:03:17.060Z,96515.94
2023-07-15T07:05:43.652Z,96532.31
2023-07-15T07:08:10.372Z,96513.34
2023-07-15T07:10:37.538Z,96518.38
2023-07-15T07:13:05.744Z,96501.44
2023-07-15T07:15:32.922Z,96516.22
2023-07-15T07:18:00.155Z,96516.72
2023-07-15T07:20:32.632Z,96514.34
2023-07-15T07:22:59.164Z,96504.47
2023-07-15T07:25:25.708Z,96503.06
2023-07-15T07:27:52.235Z,96518.16
2023-07-15T07:30:18.803Z,96510.19
2023-07-15T07:32:46.431Z,96513.44
2023-07-15T07:35:13.033Z,96511.03
2023-07-15T07:37:39.537Z,96506.00
2023-07-15T07:40:07.411Z,96509.69
2023-07-15T07:42:34.009Z,96519.91
2023-07-15T07:45:00.852Z,96510.88
2023-07-15T07:47:27.359Z,96512.66
2023-07-15T07:49:53.886Z,96502.22
2023-07-15T07:52:20.611Z,96496.06
2023-07-15T07:54:47.251Z,96498.84
2023-07-15T07:57:15.389Z,96506.03
2023-07-15T07:59:41.906Z,96512.59
2023-07-15T08:02:08.507Z,96511.31
2023-07-15T08:04:35.072Z,96513.25
2023-07-15T08:07:01.606Z,96500.34
2023-07-15T08:09:28.158Z,96500.31
2023-07-15T08:11:54.787Z,96506.06
2023-07-15T08:14:21.381Z,96494.63
2023-07-15T08:16:48.237Z,96495.38
2023-07-15T08:19:14.987Z,96496.31
2023-07-15T08:21:41.581Z,96489.47
2023-07-15T08:24:08.234Z,96504.31
2023-07-15T08:26:34.918Z,96495.41
2023-07-15T08:29:03.888Z,96503.47
2023-07-15T08:31:30.471Z,96491.00
2023-07-15T08:33:57.077Z,96489.84
2023-07-15T08:36:24.257Z,96491.69
2023-07-15T08:38:51.817Z,96482.75
2023-07-15T08:41:22.973Z,96469.78
2023-07-15T08:43:51.285Z,96469.72
2023-07-15T08:46:29.842Z,96465.00
2023-07-15T08:48:57.720Z,96472.06
2023-07-15T08:51:27.015Z,96460.69
2023-07-15T08:53:54.588Z,96469.50
2023-07-15T08:56:22.616Z,96462.34
2023-07-15T08:58:49.381Z,96467.06
2023-07-15T09:01:16.419Z,96474.56
2023-07-15T09:03:43.329Z,96454.47
2023-07-15T09:06:10.230Z,96470.34
2023-07-15T09:08:36.824Z,96454.38
2023-07-15T09:11:06.385Z,96453.47
2023-07-15T09:13:36.440Z,96458.09
2023-07-15T09:16:03.891Z,96454.31
2023-07-15T09:18:31.103Z,96448.22
2023-07-15T09:21:18.349Z,96444.59
2023-07-15T09:23:47.028Z,96446.41
2023-07-15T09:26:14.134Z,96448.34
2023-07-15T09:28:44.594Z,96441.63
2023-07-15T09:31:11.177Z,96435.66
2023-07-15T09:33:40.698Z,96423.72
2023-07-15T09:36:08.020Z,96438.09
2023-07-15T09:38:40.312Z,96446.81
2023-07-15T09:41:10.179Z,96436.38
2023-07-15T09:43:51.359Z,96429.78
2023-07-15T09:46:20.913Z,96439.50
2023-07-15T09:48:49.634Z,96430.50
2023-07-15T09:51:18.036Z,96424.81
2023-07-15T09:53:52.874Z,96425.47
2023-07-15T09:56:30.048Z,96428.00
2023-07-15T09:59:04.005Z,96424.72
2023-07-15T10:01:36.755Z,96414.28
2023-07-15T10:04:14.101Z,96425.59
2023-07-15T10:06:42.039Z,96421.63
2023-07-15T10:09:10.141Z,96414.38
2023-07-15T10:11:37.182Z,96404.56
2023-07-15T10:14:05.593Z,96409.19
2023-07-15T10:16:35.407Z,96420.91
2023-07-15T10:19:02.835Z,96408.69
2023-07-15T10:21:32.496Z,96398.50
2023-07-15T10:24:18.660Z,96390.88
2023-07-15T10:26:49.999Z,96378.19
2023-07-15T10:29:16.709Z,96386.75
2023-07-15T10:31:43.310Z,96386.09
2023-07-15T10:34:10.678Z,96396.50
2023-07-15T10:36:42.426Z,96386.53
2023-07-15T10:39:17.530Z,96388.75
2023-07-15T10:41:49.710Z,96378.81
2023-07-15T10:44:18.042Z,96380.16
2023-07-15T10:46:54.013Z,96373.25
2023-07-15T10:49:22.783Z,96372.50
2023-07-15T10:51:53.785Z,96372.50
2023-07-15T10:54:23.134Z,96355.31
2023-07-15T10:56:50.866Z,96355.38
2023-07-15T10:59:17.550Z,96367.75
2023-07-15T11:01:45.006Z,96359.66
2023-07-15T11:04:12.368Z,96358.41
2023-07-15T11:06:39.478Z,96357.00
2023-07-15T11:09:17.037Z,96353.03
2023-07-15T11:11:43.841Z,96351.03
2023-07-15T11:14:26.797Z,96354.19
2023-07-15T11:16:58.390Z,96349.31
2023-07-15T11:19:29.863Z,96333.88
2023-07-15T11:21:58.761Z,96331.50
2023-07-15T11:24:27.107Z,96333.06
2023-07-15T11:27:41.739Z,96340.28
2023-07-15T11:30:15.096Z,96335.63
2023-07-15T11:33:09.273Z,96325.00
2023-07-15T11:35:38.759Z,96323.84
2023-07-15T11:38:15.326Z,96321.00
2023-07-15T11:40:50.660Z,96319.09
2023-07-15T11:43:18.887Z,96324.81
2023-07-15T11:45:45.822Z,96323.44
2023-07-15T11:48:12.519Z,96316.91
2023-07-15T11:50:39.225Z,96319.94
2023-07-15T11:53:05.779Z,96307.22
2023-07-15T11:55:32.703Z,96314.03
2023-07-15T11:57:59.342Z,96307.94
2023-07-15T12:00:46.131Z,96306.13
2023-07-15T12:03:13.691Z,96310.13
2023-07-15T12:05:40.210Z,96307.78
2023-07-15T12:08:13.722Z,96317.41
2023-07-15T12:10:51.384Z,96308.75
2023-07-15T12:13:18.126Z,96309.56
2023-07-15T12:15:44.671Z,96296.13
2023-07-15T12:18:11.163Z,96297.47
2023-07-15T12:20:38.725Z,96289.72
2023-07-15T12:23:05.544Z,96291.28
2023-07-15T12:25:32.129Z,96277.09
2023-07-15T12:27:58.669Z,96285.19
2023-07-15T12:30:25.234Z,96270.75
2023-07-15T12:32:51.843Z,96278.97
2023-07-15T12:35:18.433Z,96276.09
2023-07-15T12:37:45.013Z,96270.34
2023-07-15T12:40:11.953Z,96266.56
2023-07-15T12:42:38.939Z,96258.59
2023-07-15T12:45:05.731Z,96258.25
2023-07-15T12:47:32.304Z,96241.47
2023-07-15T12:49:58.897Z,96237.88
2023-07-15T12:52:25.395Z,96238.88
2023-07-15T12:54:52.429Z,96245.94
2023-07-15T12:57:21.145Z,96247.16
2023-07-15T12:59:47.625Z,96223.84
2023-07-15T13:02:14.229Z,96229.81
2023-07-15T13:04:40.751Z,96231.53
2023-07-15T13:07:07.284Z,96223.63
2023-07-15T13:09:33.801Z,96233.91
2023-07-15T13:12:00.366Z,96236.94
2023-07-15T13:14:26.933Z,96238.88
2023-07-15T13:16:53.533Z,96229.94
2023-07-15T13:19:20.152Z,96216.75
2023-07-15T13:21:46.798Z,96230.13
2023-07-15T13:24:15.429Z,96218.69
2023-07-15T13:26:42.137Z,96213.09
2023-07-15T13:29:08.635Z,96211.53
2023-07-15T13:31:35.265Z,96197.00
2023-07-15T13:34:01.785Z,96190.47
2023-07-15T13:36:28.330Z,96197.03
2023-07-15T13:38:58.834Z,96196.06
2023-07-15T13:41:27.396Z,96194.09
2023-07-15T13:43:54.123Z,96203.00
2023-07-15T13:46:20.780Z,96198.69
2023-07-15T13:48:50.010Z,96185.09
2023-07-15T13:51:18.049Z,96182.84
2023-07-15T13:53:44.806Z,96178.38
2023-07-15T13:56:11.368Z,96178.75
2023-07-15T13:58:37.919Z,96185.78
2023-07-15T14:01:04.521Z,96186.03
2023-07-15T14:03:31.113Z,96180.69
2023-07-15T14:05:57.865Z,96177.44
2023-07-15T14:08:24.492Z,96170.31
2023-07-15T14:10:52.056Z,96173.06
2023-07-15T14:13:18.585Z,96174.44
2023-07-15T14:15:45.199Z,96174.47
2023-07-15T14:18:11.729Z,96164.06
2023-07-15T14:20:38.385Z,96164.63
2023-07-15T14:23:05.011Z,96154.63
2023-07-15T14:25:31.640Z,96146.53
2023-07-15T14:27:58.159Z,96160.47
2023-07-15T14:30:25.778Z,96151.00
2023-07-15T14:32:52.371Z,96143.53
2023-07-15T14:35:18.932Z,96141.44
2023-07-15T14:37:45.512Z,96150.75
2023-07-15T14:40:13.535Z,96147.59
2023-07-15T14:42:42.094Z,96150.78
2023-07-15T14:45:08.888Z,96152.88
2023-07-15T14:47:36.840Z,96128.63
2023-07-15T14:50:03.944Z,96146.81
2023-07-15T14:52:30.502Z,96153.25
2023-07-15T14:54:57.047Z,96139.63
2023-07-15T14:57:23.519Z,96130.56
2023-07-15T14:59:50.035Z,96135.41
2023-07-15T15:02:16.554Z,96134.16
2023-07-15T15:04:43.044Z,96129.13
2023-07-15T15:07:09.780Z,96136.91
2023-07-15T15:09:36.328Z,96127.22
2023-07-15T15:12:06.606Z,96118.25
2023-07-15T15:14:34.610Z,96127.69
2023-07-15T15:17:01.177Z,96129.56
2023-07-15T15:19:27.855Z,96121.84
2023-07-15T15:21:54.502Z,96123.59
2023-07-15T15:24:22.542Z,96123.84
2023-07-15T15:26:50.147Z,96129.84
2023-07-15T15:29:16.696Z,96119.69
2023-07-15T15:31:43.263Z,96127.19
2023-07-15T15:34:10.810Z,96124.56
2023-07-15T15:36:39.454Z,96124.75
2023-07-15T15:39:07.525Z,96121.16
2023-07-15T15:41:34.046Z,96114.06
2023-07-15T15:44:00.601Z,96115.63
2023-07-15T15:46:27.416Z,96123.81
2023-07-15T15:48:55.108Z,96118.97
2023-07-15T15:51:24.593Z,96126.31
2023-07-15T15:54:02.068Z,96118.63
2023-07-15T15:56:30.137Z,96105.94
2023-07-15T15:58:56.664Z,96102.66
2023-07-15T16:01:24.667Z,96113.78
2023-07-15T16:03:51.783Z,96112.88
2023-07-15T16:06:18.471Z,96113.81
2023-07-15T16:08:45.024Z,96120.28
2023-07-15T16:11:11.540Z,96118.06
2023-07-15T16:13:38.213Z,96122.28
2023-07-15T16:16:05.040Z,96110.78
2023-07-15T16:18:31.888Z,96114.16
2023-07-15T16:20:58.478Z,96109.63
2023-07-15T16:23:25.141Z,96111.28
2023-07-15T16:25:51.770Z,96102.75
2023-07-15T16:28:18.315Z,96111.38
2023-07-15T16:30:44.853Z,96100.44
2023-07-15T16:33:11.946Z,96099.16
2023-07-15T16:35:39.029Z,96092.59
2023-07-15T16:38:05.653Z,96089.41
2023-07-15T16:40:33.207Z,96094.25
2023-07-15T16:42:59.806Z,96089.41
2023-07-15T16:45:27.485Z,96082.88
2023-07-15T16:47:55.019Z,96079.22
2023-07-15T16:50:21.556Z,96078.41
2023-07-15T16:52:49.475Z,96078.72
2023-07-15T16:55:16.137Z,96078.25
2023-07-15T16:57:42.649Z,96070.53
2023-07-15T17:00:11.206Z,96056.56
2023-07-15T17:02:38.039Z,96060.72
2023-07-15T17:05:04.963Z,96053.22
2023-07-15T17:07:31.545Z,96052.16
2023-07-15T17:09:58.694Z,96047.34
2023-07-15T17:12:25.316Z,96054.53
2023-07-15T17:14:51.814Z,96046.34
2023-07-15T17:17:18.374Z,96050.47
2023-07-15T17:19:48.949Z,96047.75
2023-07-15T17:22:18.053Z,96036.63
2023-07-15T17:24:44.596Z,96028.78
2023-07-15T17:27:11.201Z,96034.25
2023-07-15T17:29:37.729Z,96029.56
2023-07-15T17:32:04.667Z,96045.53
2023-07-15T17:34:32.243Z,96040.44
2023-07-15T17:36:58.883Z,96034.50
2023-07-15T17:39:25.428Z,96051.63
2023-07-15T17:41:51.947Z,96054.91
2023-07-15T17:44:18.467Z,96058.75
2023-07-15T17:46:44.976Z,96066.59
2023-07-15T17:49:11.474Z,96081.78
2023-07-15T17:51:38.215Z,96073.25
2023-07-15T17:54:04.784Z,96082.75
2023-07-15T17:56:31.626Z,96090.47
2023-07-15T17:58:58.204Z,96085.47
2023-07-15T18:01:24.782Z,96090.44
2023-07-15T18:03:53.102Z,96085.13
2023-07-15T18:06:20.183Z,96101.84
2023-07-15T18:08:48.700Z,96093.91
2023-07-15T18:11:15.470Z,96103.31
2023-07-15T18:13:42.232Z,96109.91
2023-07-15T18:16:09.185Z,96112.78
2023-07-15T18:18:35.747Z,96112.19
2023-07-15T18:21:02.270Z,96115.94
2023-07-15T18:23:41.209Z,96129.00
2023-07-15T18:26:08.082Z,96127.19
2023-07-15T18:28:34.667Z,96146.81
2023-07-15T18:31:01.324Z,96190.31
2023-07-15T18:33:27.910Z,96193.84
2023-07-15T18:35:54.574Z,96243.72
2023-07-15T18:38:21.422Z,96239.41
2023-07-15T18:40:47.948Z,96269.91
2023-07-15T18:43:14.681Z,96280.94
2023-07-15T18:45:41.562Z,96288.72
2023-07-15T18:48:08.163Z,96273.41
2023-07-15T18:50:34.720Z,96273.88
2023-07-15T18:53:01.254Z,96277.16
2023-07-15T18:55:28.893Z,96290.34
2023-07-15T18:57:55.458Z,96295.13
2023-07-15T19:00:22.043Z,96302.13
2023-07-15T19:02:49.079Z,96285.19
2023-07-15T19:05:16.001Z,96302.22
2023-07-15T19:07:42.567Z,96302.22
2023-07-15T19:10:09.470Z,96298.72
2023-07-15T19:12:36.084Z,96286.47
2023-07-15T19:15:04.089Z,96286.31
2023-07-15T19:17:30.703Z,96283.66
2023-07-15T19:19:57.364Z,96299.13
2023-07-15T19:22:25.021Z,96322.13
2023-07-15T19:24:51.552Z,96352.22
2023-07-15T19:27:18.202Z,96332.56
2023-07-15T19:29:44.916Z,96295.44
2023-07-15T19:32:11.512Z,96299.75
2023-07-15T19:34:41.175Z,96294.69
2023-07-15T19:37:07.730Z,96247.06
2023-07-15T19:39:34.247Z,96227.41
2023-07-15T19:42:00.894Z,96232.41
2023-07-15T19:44:27.485Z,96246.72
2023-07-15T19:46:54.075Z,96270.31
2023-07-15T19:49:20.710Z,96273.91
2023-07-15T19:51:47.311Z,96241.13
2023-07-15T19:54:14.544Z,96228.53
2023-07-15T19:56:42.555Z,96234.13
2023-07-15T19:59:09.150Z,96252.91
2023-07-15T20:01:35.675Z,96242.59
2023-07-15T20:04:04.018Z,96233.22
2023-07-15T20:06:31.210Z,96233.72
2023-07-15T20:08:58.119Z,96232.31
2023-07-15T20:11:24.730Z,96250.28
2023-07-15T20:13:51.282Z,96254.69
2023-07-15T20:16:18.122Z,96259.09
2023-07-15T20:18:44.897Z,96255.00
2023-07-15T20:21:11.411Z,96255.00
2023-07-15T20:23:38.930Z,96235.03
2023-07-15T20:26:05.444Z,96243.03
2023-07-15T20:28:31.947Z,96246.00
2023-07-15T20:31:02.976Z,96249.22
2023-07-15T20:33:29.942Z,96241.13
2023-07-15T20:35:56.429Z,96236.81
2023-07-15T20:38:23.030Z,96216.94
2023-07-15T20:40:56.889Z,96229.03
2023-07-15T20:43:25.541Z,96230.66
2023-07-15T20:45:52.463Z,96225.78
2023-07-15T20:48:19.070Z,96225.41
2023-07-15T20:50:45.693Z,96226.22
2023-07-15T20:53:12.307Z,96220.84
2023-07-15T20:55:40.583Z,96216.84
2023-07-15T20:58:07.305Z,96223.28
2023-07-15T21:00:33.865Z,96225.53
2023-07-15T21:03:00.511Z,96213.97
2023-07-15T21:05:27.233Z,96212.66
2023-07-15T21:07:53.869Z,96218.75
2023-07-15T21:10:20.534Z,96220.25
2023-07-15T21:12:47.146Z,96223.22
2023-07-15T21:15:13.822Z,96221.84
2023-07-15T21:17:40.552Z,96214.75
2023-07-15T21:20:07.771Z,96195.75
2023-07-15T21:22:34.310Z,96210.94
2023-07-15T21:25:01.233Z,96214.03
2023-07-15T21:27:28.822Z,96216.25
2023-07-15T21:29:55.331Z,96202.19
2023-07-15T21:32:21.814Z,96210.50
2023-07-15T21:34:50.972Z,96217.41
2023-07-15T21:37:17.624Z,96214.22
2023-07-15T21:39:44.185Z,96217.72
2023-07-15T21:42:10.683Z,96222.31
2023-07-15T21:44:37.462Z,96232.25
2023-07-15T21:47:04.223Z,96234.66
2023-07-15T21:49:30.761Z,96243.53
2023-07-15T21:51:57.233Z,96241.56
2023-07-15T21:54:23.772Z,96265.72
2023-07-15T21:56:52.265Z,96263.03
2023-07-15T21:59:18.860Z,96273.81
2023-07-15T22:01:45.462Z,96299.78
2023-07-15T22:04:12.059Z,96331.47
2023-07-15T22:06:39.578Z,96407.22
2023-07-15T22:09:07.189Z,96440.06
2023-07-15T22:11:33.749Z,96410.09
2023-07-15T22:14:00.257Z,96467.53
2023-07-15T22:16:26.960Z,96489.00
2023-07-15T22:18:53.553Z,96458.69
2023-07-15T22:21:20.151Z,96483.66
2023-07-15T22:23:46.688Z,96490.63
2023-07-15T22:26:13.457Z,96488.47
2023-07-15T22:28:40.166Z,96500.78
2023-07-15T22:31:06.820Z,96473.38
2023-07-15T22:33:33.497Z,96501.31
2023-07-15T22:36:00.133Z,96469.09
2023-07-15T22:38:26.690Z,96473.94
2023-07-15T22:40:54.522Z,96480.66
2023-07-15T22:43:21.204Z,96452.78
2023-07-15T22:45:56.010Z,96439.16
2023-07-15T22:48:25.681Z,96456.81
2023-07-15T22:50:52.342Z,96452.22
2023-07-15T22:53:19.198Z,96455.19
2023-07-15T22:55:46.042Z,96453.31
2023-07-15T22:58:12.763Z,96466.44
2023-07-15T23:00:39.441Z,96467.50
2023-07-15T23:03:06.292Z,96481.19
2023-07-15T23:05:33.047Z,96476.06
2023-07-15T23:08:01.571Z,96485.72
2023-07-15T23:10:28.165Z,96483.03
2023-07-15T23:12:54.752Z,96512.78
2023-07-15T23:15:21.248Z,96519.44
2023-07-15T23:17:47.773Z,96526.41
2023-07-15T23:20:14.439Z,96508.16
2023-07-15T23:22:41.037Z,96496.69
2023-07-15T23:25:07.959Z,96484.88
2023-07-15T23:27:34.488Z,96460.00
2023-07-15T23:30:01.048Z,96456.16
2023-07-15T23:32:30.618Z,96482.38
2023-07-15T23:34:57.524Z,96497.59
2023-07-15T23:37:24.709Z,96502.69
2023-07-15T23:39:56.715Z,96530.47
2023-07-15T23:42:24.551Z,96564.16
2023-07-15T23:44:51.648Z,96559.69
2023-07-15T23:47:18.223Z,96532.50
2023-07-15T23:49:48.641Z,96516.72
2023-07-15T23:52:18.713Z,96480.81
2023-07-15T23:54:45.243Z,96462.97
2023-07-15T23:57:11.889Z,96486.03
2023-07-15T23:59:38.443Z,96493.44
